Green Valley, Wisconsin
Current Conditions -  °F | °C
As of 8:35 PM on Saturday 20 Dec 2014 (Local Time) from KEZS Reporting Station
Overcast Overcast  
Wind Chill: 30°   Ceiling: 3300
Heat Index: 30°   Visibility: 7mi
Dew Point: 25°   Wind: 0mph
Humidity: 82%   Direction: NA
Pressure: 30.23"   Gusts: NA
Location:  44.8°N, 88.27°W
Report Text: KEZS 210235Z AUTO 00000KT 7SM OVC033 M01/M04 A3023 RMK AO2 T10101038
Loading
Personal Weather Stations






























Interactive Weather Map New forecast layout! Learn more

10-Day Weather Forecast

Advertisements
Track Severe Weather on mobile